sensor_id;sensor_type;location;lat;lon;timestamp;temperature;humidity
10057;DHT22;5068;51.286;7.518;2023-07-24T00:00:43;17.70;70.00
10057;DHT22;5068;51.286;7.518;2023-07-24T00:02:16;17.70;70.10
10057;DHT22;5068;51.286;7.518;2023-07-24T00:03:50;17.70;70.10
10057;DHT22;5068;51.286;7.518;2023-07-24T00:05:23;17.60;70.10
10057;DHT22;5068;51.286;7.518;2023-07-24T00:06:56;17.70;70.20
10057;DHT22;5068;51.286;7.518;2023-07-24T00:08:29;17.70;70.20
10057;DHT22;5068;51.286;7.518;2023-07-24T00:10:03;17.70;70.20
10057;DHT22;5068;51.286;7.518;2023-07-24T00:11:36;17.70;70.30
10057;DHT22;5068;51.286;7.518;2023-07-24T00:13:09;17.70;70.00
10057;DHT22;5068;51.286;7.518;2023-07-24T00:14:43;17.60;70.00
10057;DHT22;5068;51.286;7.518;2023-07-24T00:16:15;17.60;69.90
10057;DHT22;5068;51.286;7.518;2023-07-24T00:17:48;17.70;70.10
10057;DHT22;5068;51.286;7.518;2023-07-24T00:19:22;17.70;70.20
10057;DHT22;5068;51.286;7.518;2023-07-24T00:20:55;17.70;70.30
10057;DHT22;5068;51.286;7.518;2023-07-24T00:22:27;17.60;70.10
10057;DHT22;5068;51.286;7.518;2023-07-24T00:24:00;17.60;70.10
10057;DHT22;5068;51.286;7.518;2023-07-24T00:25:33;17.60;70.00
10057;DHT22;5068;51.286;7.518;2023-07-24T00:27:06;17.60;70.00
10057;DHT22;5068;51.286;7.518;2023-07-24T00:28:39;17.60;70.00
10057;DHT22;5068;51.286;7.518;2023-07-24T00:30:12;17.60;70.10
10057;DHT22;5068;51.286;7.518;2023-07-24T00:31:44;17.60;70.10
10057;DHT22;5068;51.286;7.518;2023-07-24T00:33:17;17.60;70.10
10057;DHT22;5068;51.286;7.518;2023-07-24T00:34:51;17.60;70.00
10057;DHT22;5068;51.286;7.518;2023-07-24T00:36:24;17.60;70.10
10057;DHT22;5068;51.286;7.518;2023-07-24T00:37:56;17.60;70.00
10057;DHT22;5068;51.286;7.518;2023-07-24T00:39:30;17.60;70.00
10057;DHT22;5068;51.286;7.518;2023-07-24T00:41:02;17.60;70.00
10057;DHT22;5068;51.286;7.518;2023-07-24T00:42:37;17.60;69.90
10057;DHT22;5068;51.286;7.518;2023-07-24T00:44:09;17.60;69.90
10057;DHT22;5068;51.286;7.518;2023-07-24T00:45:43;17.60;69.90
10057;DHT22;5068;51.286;7.518;2023-07-24T00:47:19;17.60;70.00
10057;DHT22;5068;51.286;7.518;2023-07-24T00:48:53;17.60;70.00
10057;DHT22;5068;51.286;7.518;2023-07-24T00:50:27;17.60;70.00
10057;DHT22;5068;51.286;7.518;2023-07-24T00:52:02;17.60;70.10
10057;DHT22;5068;51.286;7.518;2023-07-24T00:53:34;17.60;70.00
10057;DHT22;5068;51.286;7.518;2023-07-24T00:55:09;17.60;70.00
10057;DHT22;5068;51.286;7.518;2023-07-24T00:56:46;17.60;70.10
10057;DHT22;5068;51.286;7.518;2023-07-24T00:58:19;17.60;70.00
10057;DHT22;5068;51.286;7.518;2023-07-24T00:59:54;17.50;69.90
10057;DHT22;5068;51.286;7.518;2023-07-24T01:01:28;17.60;70.40
10057;DHT22;5068;51.286;7.518;2023-07-24T01:03:13;17.60;69.80
10057;DHT22;5068;51.286;7.518;2023-07-24T01:04:47;17.60;69.80
10057;DHT22;5068;51.286;7.518;2023-07-24T01:06:21;17.60;69.80
10057;DHT22;5068;51.286;7.518;2023-07-24T01:07:58;17.60;70.00
10057;DHT22;5068;51.286;7.518;2023-07-24T01:09:30;17.50;69.90
10057;DHT22;5068;51.286;7.518;2023-07-24T01:11:15;17.50;69.90
10057;DHT22;5068;51.286;7.518;2023-07-24T01:12:55;17.50;70.20
10057;DHT22;5068;51.286;7.518;2023-07-24T01:14:38;17.50;69.90
10057;DHT22;5068;51.286;7.518;2023-07-24T01:16:19;17.50;69.90
10057;DHT22;5068;51.286;7.518;2023-07-24T01:17:59;17.50;69.80
10057;DHT22;5068;51.286;7.518;2023-07-24T01:19:36;17.50;69.90
10057;DHT22;5068;51.286;7.518;2023-07-24T01:21:11;17.40;70.00
10057;DHT22;5068;51.286;7.518;2023-07-24T01:23:04;17.50;70.00
10057;DHT22;5068;51.286;7.518;2023-07-24T01:25:01;17.50;70.30
10057;DHT22;5068;51.286;7.518;2023-07-24T01:26:42;17.50;70.30
10057;DHT22;5068;51.286;7.518;2023-07-24T01:28:16;17.50;70.00
10057;DHT22;5068;51.286;7.518;2023-07-24T01:29:49;17.40;69.80
10057;DHT22;5068;51.286;7.518;2023-07-24T01:31:22;17.40;69.90
10057;DHT22;5068;51.286;7.518;2023-07-24T01:32:55;17.40;69.90
10057;DHT22;5068;51.286;7.518;2023-07-24T01:34:27;17.40;69.90
10057;DHT22;5068;51.286;7.518;2023-07-24T01:36:03;17.40;69.90
10057;DHT22;5068;51.286;7.518;2023-07-24T01:37:38;17.40;70.00
10057;DHT22;5068;51.286;7.518;2023-07-24T01:39:13;17.40;70.60
10057;DHT22;5068;51.286;7.518;2023-07-24T01:40:47;17.40;69.80
10057;DHT22;5068;51.286;7.518;2023-07-24T01:42:23;17.40;69.70
10057;DHT22;5068;51.286;7.518;2023-07-24T01:43:59;17.40;69.60
10057;DHT22;5068;51.286;7.518;2023-07-24T01:45:32;17.40;69.60
10057;DHT22;5068;51.286;7.518;2023-07-24T01:47:04;17.30;69.40
10057;DHT22;5068;51.286;7.518;2023-07-24T01:48:37;17.40;69.50
10057;DHT22;5068;51.286;7.518;2023-07-24T01:50:11;17.30;69.30
10057;DHT22;5068;51.286;7.518;2023-07-24T01:51:43;17.40;69.20
10057;DHT22;5068;51.286;7.518;2023-07-24T01:53:17;17.30;69.00
10057;DHT22;5068;51.286;7.518;2023-07-24T01:54:49;17.40;69.20
10057;DHT22;5068;51.286;7.518;2023-07-24T01:56:22;17.30;69.00
10057;DHT22;5068;51.286;7.518;2023-07-24T01:57:57;17.30;69.10
10057;DHT22;5068;51.286;7.518;2023-07-24T01:59:29;17.30;69.10
10057;DHT22;5068;51.286;7.518;2023-07-24T02:01:02;17.30;69.10
10057;DHT22;5068;51.286;7.518;2023-07-24T02:02:34;17.20;68.90
10057;DHT22;5068;51.286;7.518;2023-07-24T02:04:09;17.30;68.90
10057;DHT22;5068;51.286;7.518;2023-07-24T02:05:41;17.20;68.70
10057;DHT22;5068;51.286;7.518;2023-07-24T02:07:14;17.20;68.70
10057;DHT22;5068;51.286;7.518;2023-07-24T02:08:47;17.20;68.70
10057;DHT22;5068;51.286;7.518;2023-07-24T02:10:20;17.20;68.70
10057;DHT22;5068;51.286;7.518;2023-07-24T02:11:53;17.10;68.60
10057;DHT22;5068;51.286;7.518;2023-07-24T02:13:27;17.10;68.50
10057;DHT22;5068;51.286;7.518;2023-07-24T02:15:00;17.10;68.40
10057;DHT22;5068;51.286;7.518;2023-07-24T02:16:35;17.10;68.40
10057;DHT22;5068;51.286;7.518;2023-07-24T02:18:09;17.10;68.40
10057;DHT22;5068;51.286;7.518;2023-07-24T02:19:42;17.10;68.30
10057;DHT22;5068;51.286;7.518;2023-07-24T02:21:14;17.10;68.40
10057;DHT22;5068;51.286;7.518;2023-07-24T02:22:48;17.00;68.30
10057;DHT22;5068;51.286;7.518;2023-07-24T02:24:30;17.00;69.20
10057;DHT22;5068;51.286;7.518;2023-07-24T02:26:03;17.00;68.30
10057;DHT22;5068;51.286;7.518;2023-07-24T02:27:38;17.00;68.20
10057;DHT22;5068;51.286;7.518;2023-07-24T02:29:13;16.90;68.00
10057;DHT22;5068;51.286;7.518;2023-07-24T02:30:46;16.90;68.10
10057;DHT22;5068;51.286;7.518;2023-07-24T02:32:20;16.90;68.10
10057;DHT22;5068;51.286;7.518;2023-07-24T02:33:54;16.90;68.10
10057;DHT22;5068;51.286;7.518;2023-07-24T02:35:27;16.90;68.40
10057;DHT22;5068;51.286;7.518;2023-07-24T02:37:00;16.90;67.90
10057;DHT22;5068;51.286;7.518;2023-07-24T02:38:33;16.80;67.80
10057;DHT22;5068;51.286;7.518;2023-07-24T02:40:08;16.80;68.00
10057;DHT22;5068;51.286;7.518;2023-07-24T02:41:42;16.80;68.10
10057;DHT22;5068;51.286;7.518;2023-07-24T02:43:14;16.80;68.10
10057;DHT22;5068;51.286;7.518;2023-07-24T02:44:48;16.80;68.20
10057;DHT22;5068;51.286;7.518;2023-07-24T02:46:21;16.70;68.10
10057;DHT22;5068;51.286;7.518;2023-07-24T02:47:55;16.70;68.10
10057;DHT22;5068;51.286;7.518;2023-07-24T02:49:28;16.70;68.20
10057;DHT22;5068;51.286;7.518;2023-07-24T02:51:02;16.70;68.30
10057;DHT22;5068;51.286;7.518;2023-07-24T02:52:34;16.60;68.40
10057;DHT22;5068;51.286;7.518;2023-07-24T02:54:07;16.60;68.50
10057;DHT22;5068;51.286;7.518;2023-07-24T02:55:42;16.60;68.60
10057;DHT22;5068;51.286;7.518;2023-07-24T02:57:16;16.60;68.60
10057;DHT22;5068;51.286;7.518;2023-07-24T02:58:48;16.60;68.60
10057;DHT22;5068;51.286;7.518;2023-07-24T03:00:23;16.60;68.70
10057;DHT22;5068;51.286;7.518;2023-07-24T03:01:55;16.60;69.00
10057;DHT22;5068;51.286;7.518;2023-07-24T03:03:28;16.50;69.00
10057;DHT22;5068;51.286;7.518;2023-07-24T03:05:01;16.50;69.30
10057;DHT22;5068;51.286;7.518;2023-07-24T03:06:35;16.50;69.40
10057;DHT22;5068;51.286;7.518;2023-07-24T03:08:07;16.50;69.50
10057;DHT22;5068;51.286;7.518;2023-07-24T03:09:40;16.50;69.70
10057;DHT22;5068;51.286;7.518;2023-07-24T03:11:14;16.50;69.70
10057;DHT22;5068;51.286;7.518;2023-07-24T03:12:46;16.50;69.70
10057;DHT22;5068;51.286;7.518;2023-07-24T03:14:19;16.50;69.70
10057;DHT22;5068;51.286;7.518;2023-07-24T03:15:53;16.50;69.70
10057;DHT22;5068;51.286;7.518;2023-07-24T03:17:28;16.50;69.70
10057;DHT22;5068;51.286;7.518;2023-07-24T03:19:00;16.50;69.70
10057;DHT22;5068;51.286;7.518;2023-07-24T03:20:33;16.50;69.70
10057;DHT22;5068;51.286;7.518;2023-07-24T03:22:05;16.50;69.70
10057;DHT22;5068;51.286;7.518;2023-07-24T03:23:39;16.50;69.70
10057;DHT22;5068;51.286;7.518;2023-07-24T03:25:11;16.50;69.70
10057;DHT22;5068;51.286;7.518;2023-07-24T03:26:46;16.50;69.70
10057;DHT22;5068;51.286;7.518;2023-07-24T03:28:18;16.50;69.70
10057;DHT22;5068;51.286;7.518;2023-07-24T03:30:10;16.50;69.70
10057;DHT22;5068;51.286;7.518;2023-07-24T03:31:59;16.50;70.10
10057;DHT22;5068;51.286;7.518;2023-07-24T03:33:32;16.50;70.10
10057;DHT22;5068;51.286;7.518;2023-07-24T03:35:05;16.50;69.70
10057;DHT22;5068;51.286;7.518;2023-07-24T03:36:39;16.50;69.90
10057;DHT22;5068;51.286;7.518;2023-07-24T03:38:14;16.50;70.40
10057;DHT22;5068;51.286;7.518;2023-07-24T03:39:46;16.50;69.70
10057;DHT22;5068;51.286;7.518;2023-07-24T03:41:19;16.50;69.90
10057;DHT22;5068;51.286;7.518;2023-07-24T03:42:52;16.50;70.00
10057;DHT22;5068;51.286;7.518;2023-07-24T03:44:25;16.50;70.10
10057;DHT22;5068;51.286;7.518;2023-07-24T03:45:58;16.50;70.30
10057;DHT22;5068;51.286;7.518;2023-07-24T03:47:32;16.50;70.40
10057;DHT22;5068;51.286;7.518;2023-07-24T03:49:05;16.50;70.60
10057;DHT22;5068;51.286;7.518;2023-07-24T03:50:37;16.50;71.00
10057;DHT22;5068;51.286;7.518;2023-07-24T03:52:10;16.50;70.40
10057;DHT22;5068;51.286;7.518;2023-07-24T03:53:43;16.50;70.40
10057;DHT22;5068;51.286;7.518;2023-07-24T03:55:16;16.50;70.40
10057;DHT22;5068;51.286;7.518;2023-07-24T03:56:48;16.50;70.40
10057;DHT22;5068;51.286;7.518;2023-07-24T03:58:21;16.50;70.50
10057;DHT22;5068;51.286;7.518;2023-07-24T03:59:55;16.50;70.40
10057;DHT22;5068;51.286;7.518;2023-07-24T04:01:27;16.50;70.50
10057;DHT22;5068;51.286;7.518;2023-07-24T04:03:02;16.50;70.50
10057;DHT22;5068;51.286;7.518;2023-07-24T04:04:35;16.50;70.60
10057;DHT22;5068;51.286;7.518;2023-07-24T04:06:09;16.50;70.50
10057;DHT22;5068;51.286;7.518;2023-07-24T04:07:42;16.50;70.60
10057;DHT22;5068;51.286;7.518;2023-07-24T04:09:15;16.50;70.60
10057;DHT22;5068;51.286;7.518;2023-07-24T04:10:47;16.50;70.60
10057;DHT22;5068;51.286;7.518;2023-07-24T04:12:21;16.50;70.70
10057;DHT22;5068;51.286;7.518;2023-07-24T04:13:53;16.50;70.70
10057;DHT22;5068;51.286;7.518;2023-07-24T04:15:26;16.50;70.70
10057;DHT22;5068;51.286;7.518;2023-07-24T04:16:59;16.50;70.70
10057;DHT22;5068;51.286;7.518;2023-07-24T04:18:34;16.60;70.90
10057;DHT22;5068;51.286;7.518;2023-07-24T04:20:07;16.50;70.90
10057;DHT22;5068;51.286;7.518;2023-07-24T04:21:41;16.50;71.00
10057;DHT22;5068;51.286;7.518;2023-07-24T04:23:14;16.50;70.90
10057;DHT22;5068;51.286;7.518;2023-07-24T04:24:47;16.50;70.90
10057;DHT22;5068;51.286;7.518;2023-07-24T04:26:19;16.50;70.90
10057;DHT22;5068;51.286;7.518;2023-07-24T04:27:52;16.50;70.90
10057;DHT22;5068;51.286;7.518;2023-07-24T04:29:25;16.50;70.90
10057;DHT22;5068;51.286;7.518;2023-07-24T04:30:59;16.50;71.00
10057;DHT22;5068;51.286;7.518;2023-07-24T04:32:33;16.60;71.20
10057;DHT22;5068;51.286;7.518;2023-07-24T04:34:07;16.50;71.10
10057;DHT22;5068;51.286;7.518;2023-07-24T04:35:40;16.50;71.30
10057;DHT22;5068;51.286;7.518;2023-07-24T04:37:12;16.50;71.30
10057;DHT22;5068;51.286;7.518;2023-07-24T04:38:46;16.60;71.50
10057;DHT22;5068;51.286;7.518;2023-07-24T04:40:18;16.60;71.60
10057;DHT22;5068;51.286;7.518;2023-07-24T04:41:52;16.60;71.60
10057;DHT22;5068;51.286;7.518;2023-07-24T04:43:24;16.60;72.50
10057;DHT22;5068;51.286;7.518;2023-07-24T04:44:57;16.60;71.70
10057;DHT22;5068;51.286;7.518;2023-07-24T04:46:29;16.50;71.50
10057;DHT22;5068;51.286;7.518;2023-07-24T04:48:04;16.60;71.70
10057;DHT22;5068;51.286;7.518;2023-07-24T04:49:39;16.60;71.80
10057;DHT22;5068;51.286;7.518;2023-07-24T04:51:11;16.60;71.90
10057;DHT22;5068;51.286;7.518;2023-07-24T04:52:45;16.60;71.90
10057;DHT22;5068;51.286;7.518;2023-07-24T04:54:17;16.60;72.00
10057;DHT22;5068;51.286;7.518;2023-07-24T04:55:51;16.60;72.10
10057;DHT22;5068;51.286;7.518;2023-07-24T04:57:23;16.70;72.20
10057;DHT22;5068;51.286;7.518;2023-07-24T04:58:56;16.70;72.30
10057;DHT22;5068;51.286;7.518;2023-07-24T05:00:29;16.70;72.30
10057;DHT22;5068;51.286;7.518;2023-07-24T05:02:02;16.70;72.20
10057;DHT22;5068;51.286;7.518;2023-07-24T05:03:36;16.60;72.20
10057;DHT22;5068;51.286;7.518;2023-07-24T05:05:10;16.70;72.40
10057;DHT22;5068;51.286;7.518;2023-07-24T05:06:43;16.70;72.50
10057;DHT22;5068;51.286;7.518;2023-07-24T05:08:16;16.70;72.50
10057;DHT22;5068;51.286;7.518;2023-07-24T05:09:48;16.70;72.60
10057;DHT22;5068;51.286;7.518;2023-07-24T05:11:21;16.80;72.70
10057;DHT22;5068;51.286;7.518;2023-07-24T05:12:54;16.80;72.80
10057;DHT22;5068;51.286;7.518;2023-07-24T05:14:28;16.80;72.80
10057;DHT22;5068;51.286;7.518;2023-07-24T05:16:02;16.80;72.80
10057;DHT22;5068;51.286;7.518;2023-07-24T05:17:34;16.80;72.90
10057;DHT22;5068;51.286;7.518;2023-07-24T05:19:07;16.80;72.90
10057;DHT22;5068;51.286;7.518;2023-07-24T05:20:44;16.80;72.90
10057;DHT22;5068;51.286;7.518;2023-07-24T05:22:19;16.80;73.40
10057;DHT22;5068;51.286;7.518;2023-07-24T05:23:52;16.80;73.10
10057;DHT22;5068;51.286;7.518;2023-07-24T05:25:25;16.90;73.30
10057;DHT22;5068;51.286;7.518;2023-07-24T05:26:59;16.80;73.10
10057;DHT22;5068;51.286;7.518;2023-07-24T05:28:32;16.90;73.40
10057;DHT22;5068;51.286;7.518;2023-07-24T05:30:06;16.90;73.50
10057;DHT22;5068;51.286;7.518;2023-07-24T05:31:39;16.90;73.80
10057;DHT22;5068;51.286;7.518;2023-07-24T05:33:12;16.90;73.20
10057;DHT22;5068;51.286;7.518;2023-07-24T05:34:44;17.00;73.40
10057;DHT22;5068;51.286;7.518;2023-07-24T05:36:19;16.90;73.30
10057;DHT22;5068;51.286;7.518;2023-07-24T05:37:52;17.00;73.40
10057;DHT22;5068;51.286;7.518;2023-07-24T05:39:24;17.00;73.40
10057;DHT22;5068;51.286;7.518;2023-07-24T05:40:58;17.00;73.40
10057;DHT22;5068;51.286;7.518;2023-07-24T05:42:31;17.00;73.40
10057;DHT22;5068;51.286;7.518;2023-07-24T05:44:05;17.00;73.40
10057;DHT22;5068;51.286;7.518;2023-07-24T05:45:37;17.00;73.40
10057;DHT22;5068;51.286;7.518;2023-07-24T05:47:10;17.00;72.90
10057;DHT22;5068;51.286;7.518;2023-07-24T05:48:43;17.10;73.00
10057;DHT22;5068;51.286;7.518;2023-07-24T05:50:16;17.10;73.10
10057;DHT22;5068;51.286;7.518;2023-07-24T05:51:50;17.10;73.20
10057;DHT22;5068;51.286;7.518;2023-07-24T05:53:24;17.10;73.30
10057;DHT22;5068;51.286;7.518;2023-07-24T05:54:57;17.10;73.50
10057;DHT22;5068;51.286;7.518;2023-07-24T05:56:29;17.10;73.10
10057;DHT22;5068;51.286;7.518;2023-07-24T05:58:03;17.10;73.20
10057;DHT22;5068;51.286;7.518;2023-07-24T05:59:35;17.20;73.40
10057;DHT22;5068;51.286;7.518;2023-07-24T06:01:09;17.20;73.60
10057;DHT22;5068;51.286;7.518;2023-07-24T06:02:42;17.20;73.60
10057;DHT22;5068;51.286;7.518;2023-07-24T06:04:15;17.20;73.60
10057;DHT22;5068;51.286;7.518;2023-07-24T06:05:51;17.20;73.70
10057;DHT22;5068;51.286;7.518;2023-07-24T06:07:25;17.20;73.70
10057;DHT22;5068;51.286;7.518;2023-07-24T06:08:59;17.30;73.70
10057;DHT22;5068;51.286;7.518;2023-07-24T06:10:31;17.30;73.80
10057;DHT22;5068;51.286;7.518;2023-07-24T06:12:05;17.30;73.50
10057;DHT22;5068;51.286;7.518;2023-07-24T06:13:38;17.30;73.40
10057;DHT22;5068;51.286;7.518;2023-07-24T06:15:12;17.30;73.20
10057;DHT22;5068;51.286;7.518;2023-07-24T06:16:44;17.30;73.10
10057;DHT22;5068;51.286;7.518;2023-07-24T06:18:17;17.40;72.90
10057;DHT22;5068;51.286;7.518;2023-07-24T06:19:50;17.40;72.80
10057;DHT22;5068;51.286;7.518;2023-07-24T06:21:23;17.40;72.60
10057;DHT22;5068;51.286;7.518;2023-07-24T06:22:58;17.40;72.50
10057;DHT22;5068;51.286;7.518;2023-07-24T06:24:30;17.40;72.30
10057;DHT22;5068;51.286;7.518;2023-07-24T06:26:03;17.40;72.10
10057;DHT22;5068;51.286;7.518;2023-07-24T06:27:36;17.50;72.20
10057;DHT22;5068;51.286;7.518;2023-07-24T06:29:09;17.50;72.10
10057;DHT22;5068;51.286;7.518;2023-07-24T06:30:42;17.50;72.10
10057;DHT22;5068;51.286;7.518;2023-07-24T06:32:15;17.50;72.20
10057;DHT22;5068;51.286;7.518;2023-07-24T06:33:48;17.50;72.30
10057;DHT22;5068;51.286;7.518;2023-07-24T06:35:20;17.50;72.10
10057;DHT22;5068;51.286;7.518;2023-07-24T06:36:54;17.50;72.00
10057;DHT22;5068;51.286;7.518;2023-07-24T06:38:38;17.60;72.20
10057;DHT22;5068;51.286;7.518;2023-07-24T06:40:11;17.60;72.30
10057;DHT22;5068;51.286;7.518;2023-07-24T06:41:45;17.60;72.30
10057;DHT22;5068;51.286;7.518;2023-07-24T06:43:18;17.60;72.10
10057;DHT22;5068;51.286;7.518;2023-07-24T06:44:50;17.60;71.90
10057;DHT22;5068;51.286;7.518;2023-07-24T06:46:24;17.70;71.90
10057;DHT22;5068;51.286;7.518;2023-07-24T06:47:57;17.70;71.60
10057;DHT22;5068;51.286;7.518;2023-07-24T06:49:30;17.70;71.80
10057;DHT22;5068;51.286;7.518;2023-07-24T06:51:03;17.70;71.90
10057;DHT22;5068;51.286;7.518;2023-07-24T06:52:36;17.70;71.80
10057;DHT22;5068;51.286;7.518;2023-07-24T06:54:10;17.70;71.80
10057;DHT22;5068;51.286;7.518;2023-07-24T06:55:43;17.70;71.90
10057;DHT22;5068;51.286;7.518;2023-07-24T06:57:15;17.70;72.10
10057;DHT22;5068;51.286;7.518;2023-07-24T06:58:48;17.80;72.20
10057;DHT22;5068;51.286;7.518;2023-07-24T07:00:20;17.80;71.90
10057;DHT22;5068;51.286;7.518;2023-07-24T07:01:54;17.80;71.50
10057;DHT22;5068;51.286;7.518;2023-07-24T07:03:27;17.80;71.10
10057;DHT22;5068;51.286;7.518;2023-07-24T07:04:59;17.80;71.50
10057;DHT22;5068;51.286;7.518;2023-07-24T07:06:33;17.80;71.20
10057;DHT22;5068;51.286;7.518;2023-07-24T07:08:07;17.90;71.20
10057;DHT22;5068;51.286;7.518;2023-07-24T07:09:42;17.90;71.30
10057;DHT22;5068;51.286;7.518;2023-07-24T07:11:14;17.90;71.20
10057;DHT22;5068;51.286;7.518;2023-07-24T07:12:48;18.00;71.30
10057;DHT22;5068;51.286;7.518;2023-07-24T07:14:20;18.00;71.30
10057;DHT22;5068;51.286;7.518;2023-07-24T07:15:53;18.00;71.30
10057;DHT22;5068;51.286;7.518;2023-07-24T07:17:26;18.00;71.30
10057;DHT22;5068;51.286;7.518;2023-07-24T07:18:59;18.00;71.00
10057;DHT22;5068;51.286;7.518;2023-07-24T07:20:31;18.10;71.10
10057;DHT22;5068;51.286;7.518;2023-07-24T07:22:04;18.10;70.80
10057;DHT22;5068;51.286;7.518;2023-07-24T07:23:37;18.10;70.70
10057;DHT22;5068;51.286;7.518;2023-07-24T07:25:11;18.20;70.80
10057;DHT22;5068;51.286;7.518;2023-07-24T07:26:44;18.20;70.90
10057;DHT22;5068;51.286;7.518;2023-07-24T07:28:17;18.20;71.20
10057;DHT22;5068;51.286;7.518;2023-07-24T07:29:51;18.30;71.50
10057;DHT22;5068;51.286;7.518;2023-07-24T07:31:24;18.30;71.60
10057;DHT22;5068;51.286;7.518;2023-07-24T07:32:57;18.30;71.60
10057;DHT22;5068;51.286;7.518;2023-07-24T07:34:29;18.40;71.70
10057;DHT22;5068;51.286;7.518;2023-07-24T07:36:03;18.50;71.90
10057;DHT22;5068;51.286;7.518;2023-07-24T07:37:37;18.50;71.60
10057;DHT22;5068;51.286;7.518;2023-07-24T07:39:10;18.60;70.70
10057;DHT22;5068;51.286;7.518;2023-07-24T07:40:45;18.60;70.10
10057;DHT22;5068;51.286;7.518;2023-07-24T07:42:17;18.70;69.40
10057;DHT22;5068;51.286;7.518;2023-07-24T07:43:51;18.80;69.30
10057;DHT22;5068;51.286;7.518;2023-07-24T07:45:24;18.80;69.20
10057;DHT22;5068;51.286;7.518;2023-07-24T07:46:57;18.90;69.20
10057;DHT22;5068;51.286;7.518;2023-07-24T07:48:29;18.90;68.70
10057;DHT22;5068;51.286;7.518;2023-07-24T07:50:04;19.00;68.80
10057;DHT22;5068;51.286;7.518;2023-07-24T07:51:37;19.00;68.70
10057;DHT22;5068;51.286;7.518;2023-07-24T07:53:10;19.00;68.40
10057;DHT22;5068;51.286;7.518;2023-07-24T07:54:46;19.10;68.30
10057;DHT22;5068;51.286;7.518;2023-07-24T07:56:20;19.10;68.20
10057;DHT22;5068;51.286;7.518;2023-07-24T07:57:53;19.10;67.90
10057;DHT22;5068;51.286;7.518;2023-07-24T07:59:26;19.20;67.70
10057;DHT22;5068;51.286;7.518;2023-07-24T08:01:02;19.20;67.40
10057;DHT22;5068;51.286;7.518;2023-07-24T08:02:36;19.20;67.10
10057;DHT22;5068;51.286;7.518;2023-07-24T08:04:11;19.30;66.80
10057;DHT22;5068;51.286;7.518;2023-07-24T08:05:45;19.30;66.70
10057;DHT22;5068;51.286;7.518;2023-07-24T08:07:17;19.30;66.50
10057;DHT22;5068;51.286;7.518;2023-07-24T08:08:50;19.30;67.20
10057;DHT22;5068;51.286;7.518;2023-07-24T08:10:25;19.30;66.20
10057;DHT22;5068;51.286;7.518;2023-07-24T08:11:59;19.40;65.90
10057;DHT22;5068;51.286;7.518;2023-07-24T08:13:32;19.40;66.50
10057;DHT22;5068;51.286;7.518;2023-07-24T08:15:06;19.40;66.30
10057;DHT22;5068;51.286;7.518;2023-07-24T08:16:39;19.40;66.20
10057;DHT22;5068;51.286;7.518;2023-07-24T08:18:12;19.50;65.90
10057;DHT22;5068;51.286;7.518;2023-07-24T08:19:44;19.50;65.90
10057;DHT22;5068;51.286;7.518;2023-07-24T08:21:18;19.50;65.30
10057;DHT22;5068;51.286;7.518;2023-07-24T08:22:51;19.50;64.90
10057;DHT22;5068;51.286;7.518;2023-07-24T08:24:24;19.50;64.80
10057;DHT22;5068;51.286;7.518;2023-07-24T08:25:57;19.60;65.10
10057;DHT22;5068;51.286;7.518;2023-07-24T08:27:31;19.60;65.00
10057;DHT22;5068;51.286;7.518;2023-07-24T08:29:07;19.60;64.60
10057;DHT22;5068;51.286;7.518;2023-07-24T08:30:40;19.60;64.60
10057;DHT22;5068;51.286;7.518;2023-07-24T08:32:12;19.70;64.70
10057;DHT22;5068;51.286;7.518;2023-07-24T08:33:46;19.70;64.70
10057;DHT22;5068;51.286;7.518;2023-07-24T08:35:18;19.80;64.80
10057;DHT22;5068;51.286;7.518;2023-07-24T08:36:52;19.80;63.90
10057;DHT22;5068;51.286;7.518;2023-07-24T08:38:24;19.80;63.70
10057;DHT22;5068;51.286;7.518;2023-07-24T08:39:59;19.90;63.50
10057;DHT22;5068;51.286;7.518;2023-07-24T08:41:32;19.90;63.10
10057;DHT22;5068;51.286;7.518;2023-07-24T08:43:07;19.90;62.90
10057;DHT22;5068;51.286;7.518;2023-07-24T08:44:40;20.00;62.60
10057;DHT22;5068;51.286;7.518;2023-07-24T08:46:18;20.00;62.60
10057;DHT22;5068;51.286;7.518;2023-07-24T08:47:52;20.00;63.10
10057;DHT22;5068;51.286;7.518;2023-07-24T08:49:28;20.10;62.10
10057;DHT22;5068;51.286;7.518;2023-07-24T08:51:03;20.10;61.70
10057;DHT22;5068;51.286;7.518;2023-07-24T08:52:36;20.10;61.50
10057;DHT22;5068;51.286;7.518;2023-07-24T08:54:10;20.10;61.40
10057;DHT22;5068;51.286;7.518;2023-07-24T08:55:45;20.10;61.50
10057;DHT22;5068;51.286;7.518;2023-07-24T08:57:20;20.20;61.60
10057;DHT22;5068;51.286;7.518;2023-07-24T08:58:55;20.20;61.00
10057;DHT22;5068;51.286;7.518;2023-07-24T09:00:27;20.20;60.90
10057;DHT22;5068;51.286;7.518;2023-07-24T09:02:01;20.20;60.90
10057;DHT22;5068;51.286;7.518;2023-07-24T09:03:35;20.30;61.00
10057;DHT22;5068;51.286;7.518;2023-07-24T09:05:08;20.30;60.70
10057;DHT22;5068;51.286;7.518;2023-07-24T09:06:43;20.30;60.50
10057;DHT22;5068;51.286;7.518;2023-07-24T09:08:17;20.30;60.30
10057;DHT22;5068;51.286;7.518;2023-07-24T09:10:01;20.30;60.00
10057;DHT22;5068;51.286;7.518;2023-07-24T09:11:45;20.30;60.00
10057;DHT22;5068;51.286;7.518;2023-07-24T09:13:19;20.30;59.40
10057;DHT22;5068;51.286;7.518;2023-07-24T09:15:02;20.30;59.70
10057;DHT22;5068;51.286;7.518;2023-07-24T09:16:37;20.30;59.10
10057;DHT22;5068;51.286;7.518;2023-07-24T09:18:10;20.30;59.30
10057;DHT22;5068;51.286;7.518;2023-07-24T09:19:44;20.30;59.10
10057;DHT22;5068;51.286;7.518;2023-07-24T09:21:27;20.30;59.10
10057;DHT22;5068;51.286;7.518;2023-07-24T09:23:01;20.30;58.80
10057;DHT22;5068;51.286;7.518;2023-07-24T09:24:51;20.30;59.30
10057;DHT22;5068;51.286;7.518;2023-07-24T09:26:25;20.30;59.00
10057;DHT22;5068;51.286;7.518;2023-07-24T09:27:59;20.30;59.20
10057;DHT22;5068;51.286;7.518;2023-07-24T09:29:33;20.30;59.10
10057;DHT22;5068;51.286;7.518;2023-07-24T09:31:07;20.30;59.00
10057;DHT22;5068;51.286;7.518;2023-07-24T09:32:41;20.30;58.90
10057;DHT22;5068;51.286;7.518;2023-07-24T09:34:17;20.30;58.80
10057;DHT22;5068;51.286;7.518;2023-07-24T09:35:57;20.40;59.20
10057;DHT22;5068;51.286;7.518;2023-07-24T09:37:32;20.40;59.10
10057;DHT22;5068;51.286;7.518;2023-07-24T09:39:07;20.40;59.10
10057;DHT22;5068;51.286;7.518;2023-07-24T09:40:44;20.40;59.00
10057;DHT22;5068;51.286;7.518;2023-07-24T09:42:26;20.40;58.90
10057;DHT22;5068;51.286;7.518;2023-07-24T09:43:59;20.40;59.50
10057;DHT22;5068;51.286;7.518;2023-07-24T09:45:33;20.40;59.60
10057;DHT22;5068;51.286;7.518;2023-07-24T09:47:08;20.40;59.20
10057;DHT22;5068;51.286;7.518;2023-07-24T09:49:02;20.30;59.30
10057;DHT22;5068;51.286;7.518;2023-07-24T09:50:38;20.30;59.50
10057;DHT22;5068;51.286;7.518;2023-07-24T09:52:13;20.30;59.60
10057;DHT22;5068;51.286;7.518;2023-07-24T09:53:55;20.30;60.00
10057;DHT22;5068;51.286;7.518;2023-07-24T09:55:34;20.30;60.10
10057;DHT22;5068;51.286;7.518;2023-07-24T09:57:14;20.30;60.20
10057;DHT22;5068;51.286;7.518;2023-07-24T09:58:53;20.30;60.80
10057;DHT22;5068;51.286;7.518;2023-07-24T10:00:27;20.30;61.10
10057;DHT22;5068;51.286;7.518;2023-07-24T10:02:01;20.30;61.20
10057;DHT22;5068;51.286;7.518;2023-07-24T10:03:39;20.30;61.10